Time;durP1;ratioP1;P1;durP2;ratioP2;P2;SDS_P1;SDS_P2;PMS_P1;PMS_P2;Temp;Humidity;BMP_temperature;BMP_pressure;BME280_temperature;BME280_humidity;BME280_pressure;Samples;Min_cycle;Max_cycle;Signal;HPM_P1;HPM_P2
2022/05/04 00:01:18;;;;;;;11.30;3.80;;;;;;;16.50;73.77;101093.59;2100517;28;20404;-72
2022/05/04 00:02:42;;;;;;;10.30;3.50;;;;;;;16.48;73.74;101101.59;2099579;28;20119;-72
2022/05/04 00:04:04;;;;;;;8.40;3.45;;;;;;;16.45;73.75;101101.63;2101478;28;20048;-72
2022/05/04 00:05:26;;;;;;;9.15;3.47;;;;;;;16.42;73.69;101103.38;2092354;28;20066;-72
2022/05/04 00:06:48;;;;;;;9.18;3.08;;;;;;;16.39;73.75;101101.63;2096476;28;20076;-73
2022/05/04 00:08:11;;;;;;;7.38;3.20;;;;;;;16.39;73.77;101106.09;2095161;28;20552;-72
2022/05/04 00:09:35;;;;;;;8.57;2.63;;;;;;;16.38;73.74;101109.63;2106356;28;20043;-72
2022/05/04 00:10:57;;;;;;;10.20;2.70;;;;;;;16.37;73.80;101100.75;2100967;28;20073;-72
2022/05/04 00:12:20;;;;;;;11.25;3.20;;;;;;;16.37;73.82;101100.75;2100971;28;20051;-71
2022/05/04 00:13:42;;;;;;;10.13;2.97;;;;;;;16.40;73.65;101102.53;2103664;28;20050;-71
2022/05/04 00:15:06;;;;;;;9.68;3.30;;;;;;;16.41;73.81;101099.84;2103371;28;20136;-72
2022/05/04 00:16:29;;;;;;;6.78;3.33;;;;;;;16.42;73.53;101098.06;2104665;28;20044;-72
2022/05/04 00:17:52;;;;;;;6.88;2.97;;;;;;;16.42;73.56;101098.94;2094866;28;20465;-72
2022/05/04 00:19:14;;;;;;;10.73;3.55;;;;;;;16.43;73.53;101094.50;2092260;28;20098;-72
2022/05/04 00:20:37;;;;;;;11.95;3.33;;;;;;;16.43;73.50;101092.72;2107150;28;20511;-72
2022/05/04 00:21:58;;;;;;;8.73;2.97;;;;;;;16.40;73.56;101092.75;2097959;28;20053;-72
2022/05/04 00:23:21;;;;;;;7.30;2.80;;;;;;;16.40;73.49;101100.75;2098992;28;20462;-72
2022/05/04 00:24:43;;;;;;;12.38;2.83;;;;;;;16.41;73.67;101093.66;2100631;28;20089;-72
2022/05/04 00:26:06;;;;;;;8.48;2.85;;;;;;;16.40;73.64;101098.09;2103280;28;20052;-72
2022/05/04 00:27:29;;;;;;;13.25;2.80;;;;;;;16.42;73.62;101100.72;2101282;28;20078;-71
2022/05/04 00:28:51;;;;;;;9.32;2.58;;;;;;;16.46;73.56;101105.19;2101804;28;20468;-72
2022/05/04 00:30:12;;;;;;;8.13;2.78;;;;;;;16.49;73.51;101102.47;2098120;28;20052;-72
2022/05/04 00:31:35;;;;;;;9.82;2.70;;;;;;;16.54;73.44;101111.38;2104906;28;20082;-72
2022/05/04 00:32:59;;;;;;;12.85;3.35;;;;;;;16.59;73.40;101109.56;2105743;28;20723;-72
2022/05/04 00:34:20;;;;;;;9.20;2.60;;;;;;;16.62;73.28;101110.47;2093579;28;20052;-72
2022/05/04 00:35:43;;;;;;;8.25;2.60;;;;;;;16.66;73.26;101106.91;2095825;28;20380;-72
2022/05/04 00:37:05;;;;;;;10.13;2.42;;;;;;;16.72;73.20;101106.00;2101950;28;20499;-72
2022/05/04 00:38:27;;;;;;;7.60;2.90;;;;;;;16.76;73.10;101106.88;2097635;28;20129;-72
2022/05/04 00:39:52;;;;;;;7.85;2.83;;;;;;;16.81;72.93;101105.94;2100488;28;20096;-71
2022/05/04 00:41:14;;;;;;;8.45;3.15;;;;;;;16.82;72.90;101107.72;2092622;28;20094;-72
2022/05/04 00:42:37;;;;;;;10.40;3.53;;;;;;;16.85;72.88;101107.72;2085294;28;20122;-72
2022/05/04 00:43:58;;;;;;;5.10;2.40;;;;;;;16.85;72.86;101109.50;2083273;28;20111;-72
2022/05/04 00:45:21;;;;;;;8.00;2.75;;;;;;;16.87;72.84;101110.41;2087913;28;20051;-72
2022/05/04 00:46:43;;;;;;;6.32;2.60;;;;;;;16.88;72.81;101117.47;2086502;28;20052;-72
2022/05/04 00:48:05;;;;;;;8.13;3.05;;;;;;;16.88;72.77;101120.13;2098621;28;20036;-72
2022/05/04 00:49:28;;;;;;;8.20;2.72;;;;;;;16.87;72.79;101116.59;2101831;28;20067;-72
2022/05/04 00:50:52;;;;;;;8.60;2.65;;;;;;;16.88;72.86;101104.13;2100617;28;20051;-72
2022/05/04 00:52:13;;;;;;;9.43;2.63;;;;;;;16.89;72.83;101114.81;2098693;28;20162;-72
2022/05/04 00:53:36;;;;;;;8.25;2.80;;;;;;;16.91;72.80;101117.47;2095832;28;20052;-72
2022/05/04 00:55:02;;;;;;;6.82;2.30;;;;;;;16.93;72.72;101121.03;2098440;28;20039;-72
2022/05/04 00:56:25;;;;;;;4.60;2.33;;;;;;;16.94;72.66;101128.09;2094422;28;20370;-72
2022/05/04 00:59:27;;;;;;;10.82;2.85;;;;;;;16.96;72.63;101111.22;2096823;28;20051;-71
2022/05/04 01:00:51;;;;;;;;;;;;;;;16.95;72.42;101124.56;2102228;28;20048;-72
2022/05/04 01:02:14;;;;;;;6.30;2.78;;;;;;;16.90;72.59;101113.03;2103678;28;19927;-72
2022/05/04 01:03:37;;;;;;;8.52;2.83;;;;;;;16.89;72.68;101112.13;2104460;28;20553;-72
2022/05/04 01:04:58;;;;;;;9.98;3.03;;;;;;;16.89;72.56;101114.81;2105081;28;20048;-72
2022/05/04 01:06:21;;;;;;;6.88;2.67;;;;;;;16.86;72.53;101112.16;2102584;28;20083;-72
2022/05/04 01:07:46;;;;;;;6.70;2.35;;;;;;;16.84;72.55;101116.63;2090113;28;20045;-72
2022/05/04 01:09:07;;;;;;;6.35;2.72;;;;;;;16.81;72.68;101113.06;2093979;28;20078;-72
2022/05/04 01:10:31;;;;;;;7.00;2.65;;;;;;;16.80;72.70;101117.53;2099728;28;20040;-72
2022/05/04 01:11:55;;;;;;;7.78;2.85;;;;;;;16.77;72.75;101116.63;2093327;28;20098;-72
2022/05/04 01:13:19;;;;;;;6.70;3.05;;;;;;;16.75;72.76;101113.97;2100553;28;20052;-72
2022/05/04 01:14:41;;;;;;;5.63;2.35;;;;;;;16.69;72.79;101109.56;2088961;28;20040;-72
2022/05/04 01:16:04;;;;;;;11.07;3.28;;;;;;;16.64;72.87;101113.13;2099193;28;20097;-72
2022/05/04 01:17:27;;;;;;;5.68;1.85;;;;;;;16.57;72.84;101104.25;2101908;28;20047;-72
2022/05/04 01:18:49;;;;;;;6.95;2.58;;;;;;;16.52;73.01;101103.38;2099884;28;21614;-71
2022/05/04 01:20:13;;;;;;;10.13;2.78;;;;;;;16.47;73.02;101105.19;2092908;28;20045;-71
2022/05/04 01:21:36;;;;;;;7.57;2.70;;;;;;;16.42;73.15;101104.28;2100170;28;20138;-72
2022/05/04 01:22:59;;;;;;;7.10;2.75;;;;;;;16.39;73.16;101106.09;2098682;28;20074;-72
2022/05/04 01:24:21;;;;;;;10.35;2.63;;;;;;;16.33;73.14;101105.22;2087680;28;20519;-72
2022/05/04 01:25:44;;;;;;;6.00;1.80;;;;;;;16.30;73.19;101107.88;2107024;28;20108;-72
2022/05/04 01:27:11;;;;;;;14.02;3.30;;;;;;;16.28;73.32;101098.97;2105847;28;20043;-73
2022/05/04 01:28:33;;;;;;;14.07;3.53;;;;;;;16.24;73.29;101096.34;2109543;28;20180;-72
2022/05/04 01:29:55;;;;;;;8.02;2.85;;;;;;;16.20;73.35;101100.81;2101746;28;20082;-72
2022/05/04 01:31:17;;;;;;;10.07;2.92;;;;;;;16.17;73.38;101091.91;2103152;28;20424;-72
2022/05/04 01:32:39;;;;;;;9.80;2.35;;;;;;;16.14;73.36;101103.47;2102990;28;20059;-72
2022/05/04 01:34:01;;;;;;;9.23;3.15;;;;;;;16.11;73.36;101099.91;2102027;28;21974;-72
2022/05/04 01:35:24;;;;;;;5.38;2.55;;;;;;;16.09;73.52;101093.69;2100101;28;20040;-72
2022/05/04 01:36:46;;;;;;;6.22;2.13;;;;;;;16.07;73.46;101095.50;2099994;28;20047;-73
2022/05/04 01:38:10;;;;;;;7.20;2.67;;;;;;;16.07;73.52;101099.06;2094051;28;20103;-72
2022/05/04 01:39:31;;;;;;;6.03;2.30;;;;;;;16.05;73.56;101100.81;2084115;28;20033;-73
2022/05/04 01:40:54;;;;;;;13.88;3.45;;;;;;;16.06;73.53;101097.28;2096861;28;20151;-72
2022/05/04 01:42:16;;;;;;;6.95;2.80;;;;;;;16.06;73.58;101101.72;2100804;28;20093;-73
2022/05/04 01:43:38;;;;;;;9.52;2.88;;;;;;;16.05;73.64;101100.81;2103939;28;20534;-72
2022/05/04 01:45:03;;;;;;;9.48;2.63;;;;;;;16.06;73.92;101101.72;2101441;28;20131;-72
2022/05/04 01:46:25;;;;;;;9.30;2.65;;;;;;;16.03;73.76;101104.34;2094278;28;20040;-72
2022/05/04 01:47:49;;;;;;;6.32;2.25;;;;;;;16.06;73.73;101105.25;2098645;28;20056;-72
2022/05/04 01:49:11;;;;;;;8.80;2.65;;;;;;;16.03;73.87;101107.03;2108013;28;20463;-72
2022/05/04 01:50:34;;;;;;;6.75;2.90;;;;;;;16.03;73.86;101107.03;2097379;28;20135;-72
2022/05/04 01:51:57;;;;;;;6.47;3.28;;;;;;;16.01;73.97;101098.16;2093811;28;20102;-72
2022/05/04 01:53:21;;;;;;;5.43;2.50;;;;;;;16.01;73.96;101109.72;2088340;28;20412;-72
2022/05/04 01:54:43;;;;;;;7.80;2.80;;;;;;;16.00;73.97;101107.03;2102211;28;20075;-72
2022/05/04 01:56:08;;;;;;;9.27;3.03;;;;;;;16.02;73.95;101105.25;2100895;28;20096;-72
2022/05/04 01:57:31;;;;;;;7.63;2.83;;;;;;;16.01;73.91;101100.84;2102071;28;20500;-72
2022/05/04 01:58:52;;;;;;;10.23;2.75;;;;;;;16.03;73.99;101104.34;2096520;28;20527;-72
2022/05/04 02:00:16;;;;;;;8.02;3.10;;;;;;;16.06;73.96;101105.25;2099468;28;20105;-72
2022/05/04 02:01:38;;;;;;;8.05;3.45;;;;;;;16.07;73.99;101108.81;2099850;28;20044;-72
2022/05/04 02:03:01;;;;;;;10.73;3.40;;;;;;;16.05;74.01;101110.59;2110610;28;20066;-72
2022/05/04 02:04:22;;;;;;;9.05;3.30;;;;;;;16.04;74.24;101109.69;2103549;28;20044;-72
2022/05/04 02:05:45;;;;;;;9.32;2.70;;;;;;;16.05;74.25;101113.25;2099131;28;20125;-73
2022/05/04 02:07:07;;;;;;;6.93;2.70;;;;;;;16.03;74.27;101109.69;2100628;28;20403;-72
2022/05/04 02:08:33;;;;;;;4.72;2.35;;;;;;;16.06;74.36;101107.03;2099850;28;20040;-71
2022/05/04 02:09:55;;;;;;;9.45;2.88;;;;;;;16.05;74.40;101111.47;2079333;28;20053;-72
2022/05/04 02:11:17;;;;;;;;;;;;;;;16.04;74.24;101109.69;2101380;28;20051;-72
2022/05/04 02:12:40;;;;;;;;;;;;;;;16.01;74.30;101104.38;2102531;28;20722;-72
2022/05/04 02:14:01;;;;;;;;;;;;;;;16.02;74.29;101102.56;2094820;28;19962;-72
2022/05/04 02:15:24;;;;;;;8.60;2.97;;;;;;;16.01;74.25;101107.06;2094146;28;19943;-72
2022/05/04 02:16:47;;;;;;;10.73;3.03;;;;;;;16.01;74.29;101104.38;2098682;28;20044;-73
2022/05/04 02:18:09;;;;;;;8.15;2.75;;;;;;;16.02;74.28;101115.91;2101755;28;20531;-72
2022/05/04 02:19:31;;;;;;;9.60;3.08;;;;;;;16.04;74.29;101109.69;2103762;28;20048;-73
2022/05/04 02:20:53;;;;;;;11.25;3.15;;;;;;;16.07;74.35;101108.81;2096085;28;20127;-72
2022/05/04 02:22:14;;;;;;;5.53;2.72;;;;;;;16.10;74.40;101111.47;2099734;28;20048;-72
2022/05/04 02:23:38;;;;;;;8.43;3.45;;;;;;;16.12;74.39;101107.91;2093829;28;20047;-73
2022/05/04 02:25:00;;;;;;;8.20;3.17;;;;;;;16.12;74.50;101117.69;2098023;28;20842;-72
2022/05/04 02:26:23;;;;;;;12.13;3.70;;;;;;;16.12;74.52;101112.34;2095426;28;20127;-72
2022/05/04 02:27:46;;;;;;;6.80;3.08;;;;;;;16.12;74.71;101117.69;2100745;28;20546;-72
2022/05/04 02:29:08;;;;;;;6.88;2.60;;;;;;;16.11;74.68;101114.13;2102341;28;20081;-72
2022/05/04 02:30:31;;;;;;;8.13;2.85;;;;;;;16.13;74.65;101117.69;2093708;28;20044;-73
2022/05/04 02:31:53;;;;;;;12.32;3.28;;;;;;;16.15;74.79;101117.66;2087613;28;20570;-72
2022/05/04 02:33:16;;;;;;;6.68;3.28;;;;;;;16.18;74.87;101120.31;2095925;28;20126;-73
2022/05/04 02:37:54;;;;;;;8.50;3.10;;;;;;;16.18;74.89;101123.00;2090029;28;20129;-72
2022/05/04 02:38:01;;;;;;;6.53;2.60;;;;;;;16.16;75.12;101120.31;2098276;28;20059;-72
2022/05/04 02:39:25;;;;;;;6.18;2.97;;;;;;;16.16;75.15;101119.44;2087459;28;20102;-73
2022/05/04 02:40:46;;;;;;;8.60;2.75;;;;;;;16.15;75.13;101126.53;2095282;28;20044;-73
2022/05/04 02:42:10;;;;;;;6.47;2.90;;;;;;;16.16;75.18;101125.66;2102054;28;20044;-72
2022/05/04 02:43:33;;;;;;;9.82;3.20;;;;;;;16.16;75.18;101124.75;2103441;28;20041;-72
2022/05/04 02:44:54;;;;;;;6.65;2.17;;;;;;;16.16;75.24;101127.41;2097679;28;20041;-72
2022/05/04 02:46:18;;;;;;;9.27;3.40;;;;;;;16.15;75.25;101130.97;2103901;28;20139;-72
2022/05/04 02:47:39;;;;;;;7.78;3.10;;;;;;;16.13;75.33;101124.78;2094020;28;20129;-72
2022/05/04 02:49:02;;;;;;;9.70;4.45;;;;;;;16.12;75.38;101128.34;2105377;28;20568;-72
2022/05/04 02:50:25;;;;;;;7.20;2.92;;;;;;;16.12;75.33;101137.22;2106006;28;20051;-72
2022/05/04 02:51:47;;;;;;;6.53;3.75;;;;;;;16.11;75.38;101137.19;2103054;28;20040;-72
2022/05/04 02:53:10;;;;;;;7.88;2.85;;;;;;;16.11;75.37;101138.09;2089554;28;20382;-72
2022/05/04 02:54:34;;;;;;;9.52;3.97;;;;;;;16.13;75.29;101135.44;2091092;28;20040;-72
2022/05/04 02:55:56;;;;;;;13.45;3.15;;;;;;;16.12;75.43;101137.22;2087491;28;20049;-72
2022/05/04 02:57:18;;;;;;;7.68;2.55;;;;;;;16.12;75.43;101134.53;2096519;28;20048;-73
2022/05/04 02:58:40;;;;;;;10.85;3.50;;;;;;;16.12;75.25;101137.22;2098444;28;20160;-72
2022/05/04 03:00:02;;;;;;;7.65;3.13;;;;;;;16.14;75.28;101138.09;2096322;28;20045;-73
2022/05/04 03:03:04;;;;;;;9.63;3.15;;;;;;;16.13;75.35;101143.44;2100402;28;20086;-72
2022/05/04 03:04:26;;;;;;;7.22;2.80;;;;;;;16.11;75.28;101143.41;2096884;28;20067;-72
2022/05/04 03:05:48;;;;;;;5.40;2.78;;;;;;;16.10;75.27;101146.06;2091181;28;20119;-72
2022/05/04 03:07:09;;;;;;;6.55;2.85;;;;;;;16.09;75.16;101144.31;2096218;28;20051;-72
2022/05/04 03:08:32;;;;;;;11.45;3.17;;;;;;;16.06;75.32;101142.53;2098276;28;20068;-72
2022/05/04 03:09:57;;;;;;;7.50;2.80;;;;;;;16.06;75.41;101149.66;2100739;28;20131;-72
2022/05/04 03:12:59;;;;;;;7.57;2.60;;;;;;;16.01;75.39;101148.78;2112109;28;20047;-72
2022/05/04 03:14:20;;;;;;;7.68;3.03;;;;;;;15.98;75.36;101148.75;2097392;28;20143;-72
2022/05/04 03:15:43;;;;;;;12.85;3.50;;;;;;;15.97;75.37;101154.97;2093013;28;20110;-71
2022/05/04 03:17:06;;;;;;;10.35;2.78;;;;;;;15.96;75.38;101148.75;2100007;28;20052;-72
2022/05/04 03:18:27;;;;;;;11.13;2.80;;;;;;;15.96;75.33;101148.75;2092629;28;20044;-72
2022/05/04 03:19:50;;;;;;;7.95;3.38;;;;;;;15.94;75.37;101142.56;2092960;28;20049;-72
2022/05/04 03:21:11;;;;;;;8.45;3.03;;;;;;;15.92;75.33;101150.53;2098099;28;20528;-72
2022/05/04 03:22:34;;;;;;;10.52;3.38;;;;;;;15.92;75.24;101146.97;2100527;28;20044;-72
2022/05/04 03:23:57;;;;;;;6.85;2.88;;;;;;;15.91;75.17;101151.41;2092978;28;20082;-72
2022/05/04 03:25:21;;;;;;;8.38;2.63;;;;;;;15.92;75.25;101146.97;2090950;28;20063;-72
2022/05/04 03:26:43;;;;;;;6.85;2.58;;;;;;;15.90;75.21;101146.97;2100772;28;20070;-72
2022/05/04 03:28:06;;;;;;;5.60;2.50;;;;;;;15.92;75.14;101158.53;2101615;28;20050;-72
2022/05/04 03:29:28;;;;;;;10.38;3.17;;;;;;;15.94;75.12;101151.44;2094479;28;20045;-73
2022/05/04 03:30:51;;;;;;;7.18;3.08;;;;;;;15.95;75.10;101154.94;2098919;28;20047;-72
2022/05/04 03:32:14;;;;;;;9.00;3.53;;;;;;;15.98;75.06;101154.06;2095723;28;20086;-72
2022/05/04 03:33:36;;;;;;;12.95;3.20;;;;;;;16.00;75.07;101154.97;2087253;28;20082;-72
2022/05/04 03:34:58;;;;;;;;;;;;;;;16.02;74.95;101154.06;2093183;28;20394;-72
2022/05/04 03:36:20;;;;;;;8.52;3.03;;;;;;;16.06;74.97;101163.84;2098844;28;19920;-72
2022/05/04 03:37:43;;;;;;;8.80;3.15;;;;;;;16.12;75.04;101170.94;2094109;28;20110;-72
2022/05/04 03:39:06;;;;;;;6.55;2.70;;;;;;;16.18;74.92;101163.84;2095527;28;20446;-73
2022/05/04 03:40:30;;;;;;;7.93;3.17;;;;;;;16.24;74.95;101165.59;2095474;28;20143;-73
2022/05/04 03:41:52;;;;;;;10.35;3.25;;;;;;;16.30;74.87;101173.59;2101608;28;20491;-73
2022/05/04 03:43:13;;;;;;;7.70;2.90;;;;;;;16.37;74.88;101178.03;2100387;28;20052;-72
2022/05/04 03:44:36;;;;;;;6.95;2.45;;;;;;;16.45;74.73;101176.25;2102585;28;20141;-72
2022/05/04 03:46:11;;;;;;;7.88;2.78;;;;;;;16.55;74.56;101177.97;2105579;28;20051;-72
2022/05/04 03:47:34;;;;;;;7.82;2.63;;;;;;;16.60;74.64;101170.91;2093587;28;20039;-73
2022/05/04 03:48:57;;;;;;;11.32;2.42;;;;;;;16.69;74.41;101178.88;2094547;28;20044;-73
2022/05/04 03:50:20;;;;;;;8.05;2.70;;;;;;;16.76;74.21;101179.75;2093082;28;20130;-73
2022/05/04 03:51:42;;;;;;;10.60;3.28;;;;;;;16.79;74.05;101168.19;2093147;28;20075;-72
2022/05/04 03:53:04;;;;;;;6.35;2.65;;;;;;;16.82;73.94;101178.84;2092882;28;20047;-72
2022/05/04 03:54:26;;;;;;;8.88;2.40;;;;;;;16.80;73.84;101173.53;2095245;28;20454;-72
2022/05/04 03:55:53;;;;;;;5.50;2.72;;;;;;;16.82;73.82;101170.84;2094844;28;20045;-73
2022/05/04 03:57:16;;;;;;;9.93;3.15;;;;;;;16.81;73.81;101174.38;2090398;28;20055;-73
2022/05/04 03:58:38;;;;;;;18.33;3.70;;;;;;;16.84;73.95;101177.06;2099397;28;20073;-73
2022/05/04 04:00:00;;;;;;;8.68;2.63;;;;;;;16.86;73.91;101173.50;2094420;28;20366;-73
2022/05/04 04:01:22;;;;;;;11.57;2.88;;;;;;;16.87;73.83;101174.41;2105746;28;20116;-73
2022/05/04 04:02:44;;;;;;;6.75;2.70;;;;;;;16.89;73.82;101177.91;2094631;28;20055;-72
2022/05/04 04:04:07;;;;;;;10.88;2.90;;;;;;;16.95;73.98;101183.22;2101079;28;20113;-73
2022/05/04 04:05:30;;;;;;;4.55;2.30;;;;;;;16.98;73.95;101186.78;2094375;28;20052;-73
2022/05/04 04:06:52;;;;;;;7.32;2.38;;;;;;;17.00;73.73;101193.00;2094884;28;20492;-72
2022/05/04 04:08:13;;;;;;;7.28;2.30;;;;;;;17.01;73.57;101189.44;2099271;28;20101;-72
2022/05/04 04:09:36;;;;;;;10.98;2.78;;;;;;;17.02;73.42;101191.22;2088423;28;20040;-72
2022/05/04 04:11:01;;;;;;;6.50;2.08;;;;;;;17.11;72.93;101200.97;2093658;28;20057;-73
2022/05/04 04:12:23;;;;;;;6.63;1.67;;;;;;;17.19;72.84;101193.81;2099052;28;20051;-72
2022/05/04 04:13:45;;;;;;;7.30;2.83;;;;;;;17.34;72.57;101196.41;2094117;28;20045;-73
2022/05/04 04:15:08;;;;;;;4.85;2.40;;;;;;;17.48;72.29;101190.97;2096245;28;20086;-73
2022/05/04 04:16:30;;;;;;;5.40;2.17;;;;;;;17.64;72.06;101194.50;2102575;28;20040;-73
2022/05/04 04:17:52;;;;;;;4.97;1.77;;;;;;;17.76;71.41;101199.75;2103029;28;20073;-73
2022/05/04 04:19:14;;;;;;;7.70;2.35;;;;;;;17.86;71.22;101199.66;2087364;28;20079;-72
2022/05/04 04:22:15;;;;;;;13.32;4.20;;;;;;;18.13;70.52;101197.69;2095396;28;20052;-72
2022/05/04 04:23:38;;;;;;;7.70;2.58;;;;;;;18.25;70.39;101198.44;2099681;28;20042;-72
2022/05/04 04:25:00;;;;;;;7.55;2.30;;;;;;;18.35;69.62;101201.94;2098846;28;20408;-73
2022/05/04 04:26:24;;;;;;;8.00;2.00;;;;;;;18.48;69.30;101206.28;2084391;28;20135;-72
2022/05/04 04:27:47;;;;;;;4.90;1.92;;;;;;;18.60;69.29;101202.63;2087670;28;20071;-73
2022/05/04 04:29:11;;;;;;;6.00;2.17;;;;;;;18.77;69.00;101206.03;2103235;28;20074;-74
2022/05/04 04:30:32;;;;;;;7.00;1.80;;;;;;;18.96;68.64;101204.91;2102217;28;20040;-73
2022/05/04 04:31:55;;;;;;;6.82;2.20;;;;;;;19.09;68.07;101205.66;2102982;28;20052;-73
2022/05/04 04:33:16;;;;;;;4.07;2.17;;;;;;;19.25;67.68;101203.63;2099839;28;20059;-73
2022/05/04 04:34:38;;;;;;;8.35;2.65;;;;;;;19.37;67.41;101206.16;2098920;28;20101;-73
2022/05/04 04:36:00;;;;;;;7.15;2.30;;;;;;;19.47;66.42;101203.38;2092905;28;20055;-73
2022/05/04 04:37:23;;;;;;;6.10;2.45;;;;;;;19.46;65.89;101198.03;2091227;28;20551;-73
2022/05/04 04:38:45;;;;;;;8.57;2.58;;;;;;;19.42;65.89;101204.31;2095504;28;20044;-72
2022/05/04 04:40:09;;;;;;;6.43;2.17;;;;;;;19.43;65.88;101201.59;2101632;28;20172;-72
2022/05/04 04:41:33;;;;;;;6.25;2.20;;;;;;;19.41;64.92;101205.22;2105751;28;20043;-72
2022/05/04 04:42:55;;;;;;;7.95;1.92;;;;;;;19.40;64.35;101208.81;2093451;28;20089;-73
2022/05/04 04:44:17;;;;;;;3.30;1.60;;;;;;;19.38;64.52;101213.28;2087682;28;20037;-72
2022/05/04 04:45:39;;;;;;;4.43;1.40;;;;;;;19.46;64.20;101203.41;2089781;28;20067;-73
2022/05/04 04:47:01;;;;;;;8.13;1.88;;;;;;;19.61;64.06;101207.66;2098656;28;20044;-72
2022/05/04 04:48:22;;;;;;;4.97;2.05;;;;;;;19.79;63.31;101213.63;2103030;28;20040;-73
2022/05/04 04:49:45;;;;;;;9.27;2.40;;;;;;;19.90;63.06;101218.81;2101117;28;20502;-72
2022/05/04 04:51:07;;;;;;;6.60;2.05;;;;;;;20.12;62.90;101220.25;2086200;28;20081;-73
2022/05/04 04:52:30;;;;;;;6.15;2.33;;;;;;;20.34;62.27;101218.16;2094041;28;20045;-73
2022/05/04 04:53:52;;;;;;;7.65;2.40;;;;;;;20.39;61.43;101220.75;2098086;28;20044;-73
2022/05/04 04:55:13;;;;;;;6.60;2.65;;;;;;;20.32;61.27;101219.94;2102393;28;20063;-73
2022/05/04 04:56:37;;;;;;;6.10;2.05;;;;;;;20.36;61.18;101223.47;2103830;28;20127;-72
2022/05/04 04:57:58;;;;;;;7.55;2.17;;;;;;;20.26;61.34;101220.03;2097820;28;20147;-73
2022/05/04 04:59:21;;;;;;;6.18;2.45;;;;;;;20.33;60.82;101223.53;2092685;28;20036;-72
2022/05/04 05:00:43;;;;;;;7.70;1.77;;;;;;;20.44;60.52;101218.84;2029330;28;1631614;-73
2022/05/04 05:02:06;;;;;;;8.63;2.05;;;;;;;20.47;60.21;101214.34;2099330;28;20116;-73
2022/05/04 05:03:27;;;;;;;5.90;2.10;;;;;;;20.51;59.87;101213.38;2092205;28;20048;-73
2022/05/04 05:04:50;;;;;;;8.82;2.17;;;;;;;20.66;59.39;101226.50;2089833;28;20044;-73
2022/05/04 05:06:13;;;;;;;7.78;1.95;;;;;;;20.60;59.25;101223.94;2091573;28;20135;-73
2022/05/04 05:07:35;;;;;;;7.80;2.65;;;;;;;20.56;59.42;101227.56;2106653;28;20167;-73
2022/05/04 05:08:58;;;;;;;5.53;1.90;;;;;;;20.92;58.65;101231.38;2091002;28;20132;-73
2022/05/04 05:10:20;;;;;;;7.47;1.80;;;;;;;21.40;57.64;101232.19;2089337;28;20127;-73
2022/05/04 05:11:44;;;;;;;7.72;2.00;;;;;;;21.45;57.01;101232.13;2086155;28;20098;-73
2022/05/04 05:13:07;;;;;;;4.63;1.88;;;;;;;21.66;56.68;101230.75;2088532;28;20049;-72
2022/05/04 05:16:09;;;;;;;16.30;5.40;;;;;;;21.84;55.86;101233.91;2111378;28;20423;-72
2022/05/04 05:17:32;;;;;;;12.75;4.45;;;;;;;22.10;55.52;101233.31;2101152;28;20059;-73
2022/05/04 05:18:54;;;;;;;12.48;3.28;;;;;;;22.06;55.77;101233.41;2099464;28;20116;-72
2022/05/04 05:20:20;;;;;;;5.88;2.55;;;;;;;21.95;55.75;101244.41;2090098;28;20063;-73
2022/05/04 05:21:42;;;;;;;6.38;2.17;;;;;;;21.93;55.80;101245.34;2094097;28;20067;-73
2022/05/04 05:23:05;;;;;;;6.90;2.03;;;;;;;22.26;55.29;101239.19;2091284;28;20040;-73
2022/05/04 05:24:28;;;;;;;7.18;2.45;;;;;;;22.69;54.22;101239.00;2086439;28;20144;-73
2022/05/04 05:25:50;;;;;;;6.72;2.10;;;;;;;23.15;53.14;101235.06;2094007;28;20055;-73
2022/05/04 05:27:14;;;;;;;5.57;2.20;;;;;;;23.65;52.07;101236.28;2098890;28;20050;-73
2022/05/04 05:28:37;;;;;;;4.95;2.80;;;;;;;23.60;51.84;101241.81;2093727;28;20052;-72
2022/05/04 05:29:59;;;;;;;5.65;2.28;;;;;;;23.62;51.92;101245.34;2100331;28;20040;-73
2022/05/04 05:31:22;;;;;;;6.75;1.73;;;;;;;23.54;51.95;101239.31;2094039;28;20052;-72
2022/05/04 05:32:44;;;;;;;7.55;2.00;;;;;;;23.07;52.39;101247.84;2090501;28;20197;-72
2022/05/04 05:34:06;;;;;;;5.10;1.75;;;;;;;22.59;53.36;101246.41;2092606;28;20079;-73
2022/05/04 05:35:28;;;;;;;7.68;1.80;;;;;;;22.29;54.03;101239.13;2097444;28;20445;-73
2022/05/04 05:36:51;;;;;;;6.40;2.08;;;;;;;22.40;54.06;101242.41;2101628;28;20055;-72
2022/05/04 05:38:14;;;;;;;4.07;1.65;;;;;;;22.71;53.38;101238.97;2097669;28;20123;-73
2022/05/04 05:39:36;;;;;;;6.05;2.35;;;;;;;23.14;52.45;101246.75;2097949;28;20041;-73
2022/05/04 05:40:59;;;;;;;8.32;1.98;;;;;;;23.74;51.00;101238.69;2105191;28;20040;-73
2022/05/04 05:42:23;;;;;;;5.35;1.70;;;;;;;23.51;50.84;101234.00;2094603;28;20460;-73
2022/05/04 05:43:46;;;;;;;6.85;2.28;;;;;;;22.94;51.88;101245.50;2089798;28;20056;-73
2022/05/04 05:45:08;;;;;;;8.25;2.22;;;;;;;22.48;52.74;101237.75;2095230;28;20062;-73
2022/05/04 05:46:30;;;;;;;6.82;2.10;;;;;;;22.46;53.29;101241.38;2093863;28;20037;-73
2022/05/04 05:47:53;;;;;;;4.50;2.30;;;;;;;22.27;53.52;101241.84;2102726;28;20056;-74
2022/05/04 05:49:15;;;;;;;7.07;2.22;;;;;;;21.95;54.23;101246.22;2091416;28;20053;-73
2022/05/04 05:50:38;;;;;;;7.25;2.15;;;;;;;21.85;54.86;101246.44;2099137;28;20043;-73
2022/05/04 05:52:00;;;;;;;7.40;1.98;;;;;;;21.99;54.38;101248.81;2089448;28;20048;-74
2022/05/04 05:53:23;;;;;;;10.65;3.30;;;;;;;22.10;54.12;101246.78;2087590;28;20052;-73
2022/05/04 05:54:46;;;;;;;8.55;2.28;;;;;;;21.83;54.44;101250.97;2099174;28;20055;-73
2022/05/04 05:56:09;;;;;;;5.80;1.70;;;;;;;21.52;54.81;101249.88;2102800;28;20108;-73
2022/05/04 05:57:33;;;;;;;7.53;2.72;;;;;;;21.21;55.62;101246.03;2093896;28;20032;-73
2022/05/04 05:58:56;;;;;;;7.88;2.90;;;;;;;20.98;56.33;101255.41;2099240;28;20101;-72
2022/05/04 06:00:18;;;;;;;8.82;2.20;;;;;;;21.04;56.56;101257.09;2100414;28;20584;-73
2022/05/04 06:01:41;;;;;;;11.07;2.40;;;;;;;20.99;56.45;101253.63;2103032;28;20048;-73
2022/05/04 06:03:04;;;;;;;6.20;2.10;;;;;;;21.04;56.86;101249.94;2087461;28;20151;-73
2022/05/04 06:04:27;;;;;;;5.07;1.65;;;;;;;21.60;55.78;101252.38;2080842;28;20052;-73
2022/05/04 06:05:49;;;;;;;7.28;2.10;;;;;;;21.62;55.48;101255.91;2092697;28;20045;-73
2022/05/04 06:07:12;;;;;;;8.20;1.85;;;;;;;21.62;55.41;101247.84;2098857;28;20055;-73
2022/05/04 06:08:33;;;;;;;8.00;2.42;;;;;;;21.48;55.50;101248.16;2093791;28;20040;-73
2022/05/04 06:09:56;;;;;;;8.90;2.30;;;;;;;21.33;55.62;101254.72;2091333;28;20421;-73
2022/05/04 06:11:18;;;;;;;8.48;1.88;;;;;;;21.14;56.19;101247.03;2100075;28;20047;-73
2022/05/04 06:12:43;;;;;;;3.58;1.73;;;;;;;21.50;55.88;101262.44;2095421;28;20037;-74
2022/05/04 06:14:06;;;;;;;8.10;1.88;;;;;;;22.03;54.53;101266.66;2093935;28;20052;-74
2022/05/04 06:15:29;;;;;;;6.57;1.63;;;;;;;22.32;53.96;101259.72;2093517;28;20100;-74
2022/05/04 06:16:51;;;;;;;7.13;1.65;;;;;;;22.63;53.53;101261.56;2093311;28;20102;-74
2022/05/04 06:18:13;;;;;;;6.97;2.10;;;;;;;23.11;53.00;101263.00;2096255;28;20388;-74
2022/05/04 06:19:35;;;;;;;14.13;2.65;;;;;;;23.73;52.12;101263.88;2100391;28;20051;-73
2022/05/04 06:20:59;;;;;;;9.32;1.73;;;;;;;24.34;50.62;101270.06;2100084;28;20051;-73
2022/05/04 06:22:22;;;;;;;8.30;2.63;;;;;;;24.74;49.82;101266.91;2100737;28;20097;-74
2022/05/04 06:23:44;;;;;;;5.72;1.52;;;;;;;24.93;49.23;101258.13;2093955;28;20628;-73
2022/05/04 06:25:07;;;;;;;4.15;1.35;;;;;;;24.63;49.23;101269.97;2097642;28;20101;-73
2022/05/04 06:26:30;;;;;;;10.52;2.40;;;;;;;24.11;49.76;101263.56;2094396;28;20075;-75
2022/05/04 06:27:54;;;;;;;9.95;2.20;;;;;;;23.73;50.26;101259.38;2101418;28;20456;-72
2022/05/04 06:29:17;;;;;;;7.95;1.85;;;;;;;23.78;50.54;101257.41;2093105;28;20122;-75
2022/05/04 06:34:10;;;;;;;7.28;1.80;;;;;;;24.50;48.06;101268.59;2092655;28;20438;-74
2022/05/04 06:35:33;;;;;;;6.65;1.80;;;;;;;24.39;47.99;101266.28;2089726;28;20044;-75
2022/05/04 06:36:55;;;;;;;8.65;1.63;;;;;;;24.19;48.26;101268.75;2096484;28;20458;-75
2022/05/04 06:38:17;;;;;;;7.80;1.70;;;;;;;23.86;48.69;101280.56;2104473;28;20077;-74